Time;durP1;ratioP1;P1;durP2;ratioP2;P2;SDS_P1;SDS_P2;PMS_P1;PMS_P2;Temp;Humidity;BMP_temperature;BMP_pressure;BME280_temperature;BME280_humidity;BME280_pressure;Samples;Min_cycle;Max_cycle;Signal;HPM_P1;HPM_P2
2023/12/30 00:01:21;;;;;;;;;;;10.30;99.90;;;;;;7331383;19;111223;-67
2023/12/30 00:03:48;;;;;;;;;;;10.30;99.90;;;;;;7327114;19;110124;-67
2023/12/30 00:06:15;;;;;;;;;;;10.30;99.90;;;;;;7328724;19;108596;-63
2023/12/30 00:08:42;;;;;;;;;;;10.40;99.90;;;;;;7328337;19;110234;-64
2023/12/30 00:11:10;;;;;;;;;;;10.40;99.90;;;;;;7329287;19;109599;-67
2023/12/30 00:13:37;;;;;;;;;;;10.50;99.90;;;;;;7327036;19;108842;-64
2023/12/30 00:16:05;;;;;;;;;;;10.50;99.90;;;;;;7328253;19;110932;-64
2023/12/30 00:18:32;;;;;;;;;;;10.50;99.90;;;;;;7335402;19;109646;-64
2023/12/30 00:20:59;;;;;;;;;;;10.50;99.90;;;;;;7323534;19;113098;-64
2023/12/30 00:23:27;;;;;;;;;;;10.50;99.90;;;;;;7330798;19;108951;-64
2023/12/30 00:26:05;;;;;;;;;;;10.40;99.90;;;;;;7331577;19;112548;-64
2023/12/30 00:28:33;;;;;;;;;;;10.50;99.90;;;;;;7326958;19;109956;-64
2023/12/30 00:31:00;;;;;;;;;;;10.50;99.90;;;;;;7333568;19;110315;-64
2023/12/30 00:33:27;;;;;;;;;;;10.50;99.90;;;;;;7332432;19;109508;-64
2023/12/30 00:35:56;;;;;;;;;;;10.40;99.90;;;;;;7330633;19;109655;-64
2023/12/30 00:38:23;;;;;;;;;;;10.50;99.90;;;;;;7334608;19;110176;-64
2023/12/30 00:40:50;;;;;;;;;;;10.50;99.90;;;;;;7328385;19;109573;-64
2023/12/30 00:43:17;;;;;;;;;;;10.40;99.90;;;;;;7329871;19;109362;-64
2023/12/30 00:45:44;;;;;;;;;;;10.40;99.90;;;;;;7331947;19;108985;-64
2023/12/30 00:48:13;;;;;;;;;;;10.50;99.90;;;;;;7330267;19;110169;-64
2023/12/30 00:50:41;;;;;;;;;;;10.40;99.90;;;;;;7331085;19;108401;-64
2023/12/30 00:53:08;;;;;;;;;;;10.40;99.90;;;;;;7328657;19;108885;-66
2023/12/30 00:55:35;;;;;;;;;;;10.40;99.90;;;;;;7329215;19;109967;-64
2023/12/30 00:58:02;;;;;;;;;;;10.40;99.90;;;;;;7329265;19;109503;-64
2023/12/30 01:00:29;;;;;;;;;;;10.40;99.90;;;;;;7334324;19;108868;-64
2023/12/30 01:02:56;;;;;;;;;;;10.40;99.90;;;;;;7329682;19;109386;-64
2023/12/30 01:05:24;;;;;;;;;;;10.40;99.90;;;;;;7332632;19;108373;-63
2023/12/30 01:07:51;;;;;;;;;;;10.40;99.90;;;;;;7329296;19;109658;-66
2023/12/30 01:10:18;;;;;;;;;;;10.40;99.90;;;;;;7331097;19;108645;-64
2023/12/30 01:12:45;;;;;;;;;;;10.40;99.90;;;;;;7328416;19;110560;-64
2023/12/30 01:15:12;;;;;;;;;;;10.40;99.90;;;;;;7328904;19;109124;-64
2023/12/30 01:17:39;;;;;;;;;;;10.40;99.90;;;;;;7326564;19;110404;-64
2023/12/30 01:20:07;;;;;;;;;;;10.40;99.90;;;;;;7329496;19;109344;-64
2023/12/30 01:22:36;;;;;;;;;;;10.40;99.90;;;;;;7335436;19;110107;-64
2023/12/30 01:25:04;;;;;;;;;;;10.40;99.90;;;;;;7326706;19;108683;-64
2023/12/30 01:27:31;;;;;;;;;;;10.40;99.90;;;;;;7326767;19;110058;-64
2023/12/30 01:29:58;;;;;;;;;;;10.40;99.90;;;;;;7329596;19;108671;-64
2023/12/30 01:32:25;;;;;;;;;;;10.30;99.90;;;;;;7331575;19;108936;-63
2023/12/30 01:34:52;;;;;;;;;;;10.40;99.90;;;;;;7327886;19;109055;-64
2023/12/30 01:37:19;;;;;;;;;;;10.30;99.90;;;;;;7331044;19;109358;-64
2023/12/30 01:39:47;;;;;;;;;;;10.40;99.90;;;;;;7327064;19;109154;-64
2023/12/30 01:42:14;;;;;;;;;;;10.30;99.90;;;;;;7329120;19;109780;-64
2023/12/30 01:44:41;;;;;;;;;;;10.30;99.90;;;;;;7334884;19;108487;-64
2023/12/30 01:47:08;;;;;;;;;;;10.30;99.90;;;;;;7327007;19;109588;-64
2023/12/30 01:49:35;;;;;;;;;;;10.30;99.90;;;;;;7332016;19;108698;-64
2023/12/30 01:52:02;;;;;;;;;;;10.30;99.90;;;;;;7336129;19;111193;-63
2023/12/30 01:54:30;;;;;;;;;;;10.30;99.90;;;;;;7335529;19;109252;-64
2023/12/30 01:56:57;;;;;;;;;;;10.30;99.90;;;;;;7336701;19;108728;-64
2023/12/30 01:59:26;;;;;;;;;;;10.20;99.90;;;;;;7339778;19;109369;-64
2023/12/30 02:01:55;;;;;;;;;;;10.20;99.90;;;;;;7334667;19;109655;-63
2023/12/30 02:04:24;;;;;;;;;;;10.20;99.90;;;;;;7338637;19;108110;-67
2023/12/30 02:06:51;;;;;;;;;;;10.20;99.90;;;;;;7343039;19;109060;-64
2023/12/30 02:09:18;;;;;;;;;;;10.20;99.90;;;;;;7333433;19;108874;-63
2023/12/30 02:11:46;;;;;;;;;;;10.20;99.90;;;;;;7334754;19;110140;-64
2023/12/30 02:14:26;;;;;;;;;;;10.20;99.90;;;;;;7336289;19;109729;-64
2023/12/30 02:16:53;;;;;;;;;;;10.20;99.90;;;;;;7334946;19;109008;-64
2023/12/30 02:19:21;;;;;;;;;;;10.20;99.90;;;;;;7331127;19;111518;-64
2023/12/30 02:21:48;;;;;;;;;;;10.20;99.90;;;;;;7334968;19;111421;-64
2023/12/30 02:24:16;;;;;;;;;;;10.20;99.90;;;;;;7334757;19;109699;-64
2023/12/30 02:26:43;;;;;;;;;;;10.10;99.90;;;;;;7336520;19;109100;-64
2023/12/30 02:29:10;;;;;;;;;;;10.10;99.90;;;;;;7335054;19;108350;-63
2023/12/30 02:31:45;;;;;;;;;;;10.10;99.90;;;;;;7333623;19;109271;-64
2023/12/30 02:34:17;;;;;;;;;;;10.10;99.90;;;;;;7336675;19;109462;-64
2023/12/30 02:36:45;;;;;;;;;;;10.10;99.90;;;;;;7335933;19;109346;-64
2023/12/30 02:39:12;;;;;;;;;;;10.10;99.90;;;;;;7332182;19;108734;-64
2023/12/30 02:41:40;;;;;;;;;;;10.10;99.90;;;;;;7332022;19;110549;-64
2023/12/30 02:44:07;;;;;;;;;;;10.10;99.90;;;;;;7333419;19;109095;-64
2023/12/30 02:46:34;;;;;;;;;;;10.10;99.90;;;;;;7338765;19;108853;-64
2023/12/30 02:49:04;;;;;;;;;;;10.00;99.90;;;;;;7335005;19;109117;-64
2023/12/30 02:51:32;;;;;;;;;;;10.00;99.90;;;;;;7333318;19;111079;-64
2023/12/30 02:53:59;;;;;;;;;;;10.00;99.90;;;;;;7333567;19;109084;-64
2023/12/30 02:56:27;;;;;;;;;;;10.00;99.90;;;;;;7333887;19;109478;-64
2023/12/30 02:58:58;;;;;;;;;;;10.00;99.90;;;;;;7333353;19;110458;-64
2023/12/30 03:01:27;;;;;;;;;;;10.00;99.90;;;;;;7332116;19;109827;-66
2023/12/30 03:03:56;;;;;;;;;;;10.00;99.90;;;;;;7328739;19;111151;-64
2023/12/30 03:06:23;;;;;;;;;;;10.00;99.90;;;;;;7335571;19;109161;-64
2023/12/30 03:08:50;;;;;;;;;;;10.00;99.90;;;;;;7332678;19;110674;-64
2023/12/30 03:11:18;;;;;;;;;;;10.00;99.90;;;;;;7337927;19;108933;-67
2023/12/30 03:13:45;;;;;;;;;;;10.00;99.90;;;;;;7333329;19;110197;-64
2023/12/30 03:16:15;;;;;;;;;;;10.00;99.90;;;;;;7331639;19;109791;-64
2023/12/30 03:18:43;;;;;;;;;;;9.90;99.90;;;;;;7334626;19;108992;-64
2023/12/30 03:21:13;;;;;;;;;;;10.00;99.90;;;;;;7332750;19;109997;-64
2023/12/30 03:23:41;;;;;;;;;;;10.00;99.90;;;;;;7335425;19;113587;-64
2023/12/30 03:26:09;;;;;;;;;;;10.00;99.90;;;;;;7331344;19;109283;-63
2023/12/30 03:28:37;;;;;;;;;;;9.90;99.90;;;;;;7330913;19;109759;-64
2023/12/30 03:31:04;;;;;;;;;;;9.90;99.90;;;;;;7332606;19;109381;-64
2023/12/30 03:33:31;;;;;;;;;;;9.90;99.90;;;;;;7337631;19;111649;-64
2023/12/30 03:35:58;;;;;;;;;;;9.90;99.90;;;;;;7333278;19;110905;-64
2023/12/30 03:38:26;;;;;;;;;;;9.90;99.90;;;;;;7334395;19;109513;-64
2023/12/30 03:40:53;;;;;;;;;;;9.90;99.90;;;;;;7332576;19;109723;-64
2023/12/30 03:43:22;;;;;;;;;;;9.90;99.90;;;;;;7333216;19;108825;-63
2023/12/30 03:45:49;;;;;;;;;;;9.90;99.90;;;;;;7331460;19;109262;-64
2023/12/30 03:48:16;;;;;;;;;;;9.90;99.90;;;;;;7332190;19;111666;-64
2023/12/30 03:50:43;;;;;;;;;;;9.90;99.90;;;;;;7333826;19;110751;-64
2023/12/30 03:53:11;;;;;;;;;;;9.90;99.90;;;;;;7332920;19;109030;-75
2023/12/30 03:55:38;;;;;;;;;;;9.90;99.90;;;;;;7336446;19;110086;-67
2023/12/30 03:58:05;;;;;;;;;;;9.90;99.90;;;;;;7330581;19;109753;-69
2023/12/30 04:00:32;;;;;;;;;;;9.90;99.90;;;;;;7331886;19;110773;-72
2023/12/30 04:02:59;;;;;;;;;;;9.90;99.90;;;;;;7331899;19;108797;-67
2023/12/30 04:05:27;;;;;;;;;;;9.90;99.90;;;;;;7333076;19;109567;-72
2023/12/30 04:07:54;;;;;;;;;;;9.90;99.90;;;;;;7331584;19;109647;-69
2023/12/30 04:10:21;;;;;;;;;;;9.90;99.90;;;;;;7331910;19;108611;-74
2023/12/30 04:12:48;;;;;;;;;;;9.90;99.90;;;;;;7329123;19;108789;-69
2023/12/30 04:15:15;;;;;;;;;;;9.90;99.90;;;;;;7327612;19;110121;-64
2023/12/30 04:17:43;;;;;;;;;;;9.80;99.90;;;;;;7337775;19;108725;-69
2023/12/30 04:20:10;;;;;;;;;;;9.80;99.90;;;;;;7333022;19;110138;-63
2023/12/30 04:22:37;;;;;;;;;;;9.80;99.90;;;;;;7331950;19;109117;-64
2023/12/30 04:25:05;;;;;;;;;;;9.80;99.90;;;;;;7331480;19;110262;-64
2023/12/30 04:27:32;;;;;;;;;;;9.80;99.90;;;;;;7330927;19;109076;-64
2023/12/30 04:29:59;;;;;;;;;;;9.80;99.90;;;;;;7331927;19;110056;-65
2023/12/30 04:32:26;;;;;;;;;;;9.80;99.90;;;;;;7328907;19;109086;-70
2023/12/30 04:34:54;;;;;;;;;;;9.80;99.90;;;;;;7331746;19;110712;-68
2023/12/30 04:37:21;;;;;;;;;;;9.70;99.90;;;;;;7335755;19;110229;-65
2023/12/30 04:39:48;;;;;;;;;;;9.70;99.90;;;;;;7329148;19;109478;-68
2023/12/30 04:42:15;;;;;;;;;;;9.70;99.90;;;;;;7327547;19;109248;-72
2023/12/30 04:44:42;;;;;;;;;;;9.70;99.90;;;;;;7332286;19;108952;-66
2023/12/30 04:47:09;;;;;;;;;;;9.70;99.90;;;;;;7326492;19;109616;-65
2023/12/30 04:49:36;;;;;;;;;;;9.70;99.90;;;;;;7330632;19;111012;-69
2023/12/30 04:52:04;;;;;;;;;;;9.70;99.90;;;;;;7329421;19;110501;-64
2023/12/30 04:54:31;;;;;;;;;;;9.70;99.90;;;;;;7329639;19;109677;-66
2023/12/30 04:56:58;;;;;;;;;;;9.60;99.90;;;;;;7331758;19;109264;-66
2023/12/30 04:59:26;;;;;;;;;;;9.60;99.90;;;;;;7336951;19;110741;-64
2023/12/30 05:01:54;;;;;;;;;;;9.60;99.90;;;;;;7328048;19;109747;-66
2023/12/30 05:04:21;;;;;;;;;;;9.60;99.90;;;;;;7329901;19;109182;-64
2023/12/30 05:06:50;;;;;;;;;;;9.60;99.90;;;;;;7330932;19;109251;-64
2023/12/30 05:09:17;;;;;;;;;;;9.50;99.90;;;;;;7331547;19;109144;-64
2023/12/30 05:11:44;;;;;;;;;;;9.50;99.90;;;;;;7330668;19;108939;-70
2023/12/30 05:14:12;;;;;;;;;;;9.50;99.90;;;;;;7327328;19;110408;-67
2023/12/30 05:16:45;;;;;;;;;;;9.50;99.90;;;;;;7330172;19;108983;-68
2023/12/30 05:19:13;;;;;;;;;;;9.50;99.90;;;;;;7330345;19;110631;-65
2023/12/30 05:21:40;;;;;;;;;;;9.50;99.90;;;;;;7332723;19;110083;-64
2023/12/30 05:24:08;;;;;;;;;;;9.50;99.90;;;;;;7333151;19;108881;-65
2023/12/30 05:26:36;;;;;;;;;;;9.50;99.90;;;;;;7337743;19;109146;-65
2023/12/30 05:29:03;;;;;;;;;;;9.50;99.90;;;;;;7334640;19;108942;-64
2023/12/30 05:31:30;;;;;;;;;;;9.50;99.90;;;;;;7334493;19;108879;-64
2023/12/30 05:33:57;;;;;;;;;;;9.50;99.90;;;;;;7334821;19;110684;-64
2023/12/30 05:36:24;;;;;;;;;;;9.40;99.90;;;;;;7337224;19;108810;-65
2023/12/30 05:38:52;;;;;;;;;;;9.40;99.90;;;;;;7333972;19;109246;-64
2023/12/30 05:41:19;;;;;;;;;;;9.50;99.90;;;;;;7334880;19;110600;-64
2023/12/30 05:43:46;;;;;;;;;;;9.40;99.90;;;;;;7341437;19;109132;-64
2023/12/30 05:46:16;;;;;;;;;;;9.40;99.90;;;;;;7334335;19;109626;-64
2023/12/30 05:48:44;;;;;;;;;;;9.40;99.90;;;;;;7335075;19;108806;-64
2023/12/30 05:51:11;;;;;;;;;;;9.40;99.90;;;;;;7335935;19;108299;-64
2023/12/30 05:53:40;;;;;;;;;;;9.40;99.90;;;;;;7335744;19;109408;-64
2023/12/30 05:56:08;;;;;;;;;;;9.40;99.90;;;;;;7333065;19;108814;-64
2023/12/30 05:58:35;;;;;;;;;;;9.40;99.90;;;;;;7335690;19;110647;-64
2023/12/30 06:01:02;;;;;;;;;;;9.40;99.90;;;;;;7332144;19;109768;-64
2023/12/30 06:03:29;;;;;;;;;;;9.40;99.90;;;;;;7334391;19;108831;-64
2023/12/30 06:05:56;;;;;;;;;;;9.30;99.90;;;;;;7338149;19;108598;-64
2023/12/30 06:08:24;;;;;;;;;;;9.40;99.90;;;;;;7335580;19;110909;-64
2023/12/30 06:10:53;;;;;;;;;;;9.30;99.90;;;;;;7333969;19;112703;-67
2023/12/30 06:13:20;;;;;;;;;;;9.30;99.90;;;;;;7335388;19;109846;-64
2023/12/30 06:15:49;;;;;;;;;;;9.30;99.90;;;;;;7332789;19;109276;-64
2023/12/30 06:18:17;;;;;;;;;;;9.30;99.90;;;;;;7336157;19;108512;-64
2023/12/30 06:20:45;;;;;;;;;;;9.30;99.90;;;;;;7329723;19;109306;-64
2023/12/30 06:23:13;;;;;;;;;;;9.40;99.90;;;;;;7331829;19;111614;-64
2023/12/30 06:25:40;;;;;;;;;;;9.30;99.90;;;;;;7334515;19;109254;-64
2023/12/30 06:28:07;;;;;;;;;;;9.40;99.90;;;;;;7335968;19;110391;-64
2023/12/30 06:30:35;;;;;;;;;;;9.30;99.90;;;;;;7335972;19;110504;-64
2023/12/30 06:33:06;;;;;;;;;;;9.40;99.90;;;;;;7333301;19;109429;-64
2023/12/30 06:35:35;;;;;;;;;;;9.30;99.90;;;;;;7331562;19;109814;-65
2023/12/30 06:38:02;;;;;;;;;;;9.30;99.90;;;;;;7330721;19;111265;-64
2023/12/30 06:40:29;;;;;;;;;;;9.40;99.90;;;;;;7333474;19;109359;-64
2023/12/30 06:42:56;;;;;;;;;;;9.40;99.90;;;;;;7333536;19;109309;-64
2023/12/30 06:45:23;;;;;;;;;;;9.40;99.90;;;;;;7335700;19;109228;-64
2023/12/30 06:47:51;;;;;;;;;;;9.40;99.90;;;;;;7336559;19;110620;-72
2023/12/30 06:50:20;;;;;;;;;;;9.40;99.90;;;;;;7336064;19;108496;-64
2023/12/30 06:52:48;;;;;;;;;;;9.40;99.90;;;;;;7331183;19;110696;-64
2023/12/30 06:55:16;;;;;;;;;;;9.40;99.90;;;;;;7334402;19;109475;-64
2023/12/30 06:57:54;;;;;;;;;;;9.40;99.90;;;;;;7333178;19;112796;-64
2023/12/30 07:00:21;;;;;;;;;;;9.40;99.90;;;;;;7334679;19;111291;-64
2023/12/30 07:02:48;;;;;;;;;;;9.40;99.90;;;;;;7330214;19;109044;-64
2023/12/30 07:05:15;;;;;;;;;;;9.40;99.90;;;;;;7334557;19;109109;-64
2023/12/30 07:07:42;;;;;;;;;;;9.40;99.90;;;;;;7332203;19;110271;-63
2023/12/30 07:10:10;;;;;;;;;;;9.40;99.90;;;;;;7339420;19;108382;-63
2023/12/30 07:12:38;;;;;;;;;;;9.40;99.90;;;;;;7333457;19;110314;-63
2023/12/30 07:15:05;;;;;;;;;;;9.40;99.90;;;;;;7335311;19;108844;-64
2023/12/30 07:17:32;;;;;;;;;;;9.40;99.90;;;;;;7330781;19;108468;-64
2023/12/30 07:19:59;;;;;;;;;;;9.40;99.90;;;;;;7332186;19;109602;-64
2023/12/30 07:22:26;;;;;;;;;;;9.40;99.90;;;;;;7334213;19;108391;-64
2023/12/30 07:24:53;;;;;;;;;;;9.40;99.90;;;;;;7331567;19;112202;-64
2023/12/30 07:27:21;;;;;;;;;;;9.40;99.90;;;;;;7334183;19;110053;-64
2023/12/30 07:29:48;;;;;;;;;;;9.40;99.90;;;;;;7331611;19;108507;-64
2023/12/30 07:32:15;;;;;;;;;;;9.40;99.90;;;;;;7333886;19;110313;-64
2023/12/30 07:34:42;;;;;;;;;;;9.40;99.90;;;;;;7334122;19;109119;-64
2023/12/30 07:37:10;;;;;;;;;;;9.40;99.90;;;;;;7331947;19;109277;-64
2023/12/30 07:39:37;;;;;;;;;;;9.40;99.90;;;;;;7333765;19;109482;-63
2023/12/30 07:42:04;;;;;;;;;;;9.40;99.90;;;;;;7330264;19;109713;-63
2023/12/30 07:44:37;;;;;;;;;;;9.40;99.90;;;;;;7331258;19;108949;-63
2023/12/30 07:47:06;;;;;;;;;;;9.40;99.90;;;;;;7332291;19;110192;-63
2023/12/30 07:49:34;;;;;;;;;;;9.40;99.90;;;;;;7330707;19;108540;-64
2023/12/30 07:52:01;;;;;;;;;;;9.40;99.90;;;;;;7333256;19;108559;-63
2023/12/30 07:54:29;;;;;;;;;;;9.30;99.90;;;;;;7336610;19;110390;-63
2023/12/30 07:56:56;;;;;;;;;;;9.30;99.90;;;;;;7332539;19;109130;-64
2023/12/30 07:59:23;;;;;;;;;;;9.30;99.90;;;;;;7331204;19;110525;-64
2023/12/30 08:01:51;;;;;;;;;;;9.30;99.90;;;;;;7328994;19;110628;-64
2023/12/30 08:04:18;;;;;;;;;;;9.30;99.90;;;;;;7333047;19;109210;-64
2023/12/30 08:06:45;;;;;;;;;;;9.30;99.90;;;;;;7330599;19;109114;-64
2023/12/30 08:09:13;;;;;;;;;;;9.20;99.90;;;;;;7331404;19;108612;-64
2023/12/30 08:11:52;;;;;;;;;;;9.30;99.90;;;;;;7331085;19;108426;-66
2023/12/30 08:14:28;;;;;;;;;;;9.20;99.90;;;;;;7332499;19;110881;-64
2023/12/30 08:16:56;;;;;;;;;;;9.20;99.90;;;;;;7337602;19;109649;-64
2023/12/30 08:19:23;;;;;;;;;;;9.20;99.90;;;;;;7326298;19;112212;-64
2023/12/30 08:21:50;;;;;;;;;;;9.20;99.90;;;;;;7333761;19;108609;-64
2023/12/30 08:24:19;;;;;;;;;;;9.20;99.90;;;;;;7329920;19;108651;-64
2023/12/30 08:26:46;;;;;;;;;;;9.20;99.90;;;;;;7330661;19;111292;-64
2023/12/30 08:29:14;;;;;;;;;;;9.20;99.90;;;;;;7327817;19;109071;-64
2023/12/30 08:31:45;;;;;;;;;;;9.30;99.90;;;;;;7331985;19;109385;-64
2023/12/30 08:34:13;;;;;;;;;;;9.30;99.90;;;;;;7328017;19;109545;-65
2023/12/30 08:36:42;;;;;;;;;;;9.30;99.90;;;;;;7332781;19;114893;-64
2023/12/30 08:39:10;;;;;;;;;;;9.30;99.90;;;;;;7332084;19;109824;-64
2023/12/30 08:41:37;;;;;;;;;;;9.30;99.90;;;;;;7331968;19;109072;-64
2023/12/30 08:44:04;;;;;;;;;;;9.30;99.90;;;;;;7329586;19;111816;-64
2023/12/30 08:46:31;;;;;;;;;;;9.30;99.90;;;;;;7331882;19;109119;-64
2023/12/30 08:48:59;;;;;;;;;;;9.40;99.90;;;;;;7330381;19;108755;-64
2023/12/30 08:51:29;;;;;;;;;;;9.40;99.90;;;;;;7330887;19;110143;-68
2023/12/30 08:53:57;;;;;;;;;;;9.40;99.90;;;;;;7331705;19;109316;-65
2023/12/30 08:56:24;;;;;;;;;;;9.40;99.90;;;;;;7332217;19;110352;-64
2023/12/30 08:58:51;;;;;;;;;;;9.40;99.90;;;;;;7336333;19;108685;-64
2023/12/30 09:01:18;;;;;;;;;;;9.50;99.90;;;;;;7337071;19;109397;-66
2023/12/30 09:03:46;;;;;;;;;;;9.50;99.90;;;;;;7337179;19;109691;-64
2023/12/30 09:06:13;;;;;;;;;;;9.50;99.90;;;;;;7331754;19;109839;-64
2023/12/30 09:08:41;;;;;;;;;;;9.50;99.90;;;;;;7336545;19;110329;-65
2023/12/30 09:11:27;;;;;;;;;;;9.60;99.90;;;;;;7335231;19;109432;-64
2023/12/30 09:13:54;;;;;;;;;;;9.60;99.90;;;;;;7332698;19;111013;-67
2023/12/30 09:16:21;;;;;;;;;;;9.60;99.90;;;;;;7341052;19;109360;-67
2023/12/30 09:18:48;;;;;;;;;;;9.60;99.90;;;;;;7338066;19;110770;-67
2023/12/30 09:21:15;;;;;;;;;;;9.60;99.90;;;;;;7338003;19;110178;-67
2023/12/30 09:23:43;;;;;;;;;;;9.60;99.90;;;;;;7337161;19;108340;-67
2023/12/30 09:26:10;;;;;;;;;;;9.60;99.90;;;;;;7335699;19;113610;-67
2023/12/30 09:28:37;;;;;;;;;;;9.70;99.90;;;;;;7337357;19;108818;-67
2023/12/30 09:31:04;;;;;;;;;;;9.70;99.90;;;;;;7335681;19;108874;-67
2023/12/30 09:33:31;;;;;;;;;;;9.80;99.90;;;;;;7336688;19;109622;-67
2023/12/30 09:35:59;;;;;;;;;;;9.90;99.90;;;;;;7333496;19;110530;-67
2023/12/30 09:38:26;;;;;;;;;;;9.90;99.90;;;;;;7336532;19;108855;-68
2023/12/30 09:40:53;;;;;;;;;;;9.90;99.90;;;;;;7335960;19;109692;-68
2023/12/30 09:43:22;;;;;;;;;;;10.00;99.90;;;;;;7341814;19;108827;-68
2023/12/30 09:45:51;;;;;;;;;;;10.10;99.90;;;;;;7332623;19;109239;-68
2023/12/30 09:48:24;;;;;;;;;;;10.10;99.90;;;;;;7337196;19;109004;-68
2023/12/30 09:50:53;;;;;;;;;;;10.10;99.90;;;;;;7332023;19;108867;-69
2023/12/30 09:53:22;;;;;;;;;;;10.20;99.90;;;;;;7334466;19;109128;-70
2023/12/30 09:55:50;;;;;;;;;;;10.20;99.90;;;;;;7333552;19;111664;-68
2023/12/30 09:58:17;;;;;;;;;;;10.30;99.90;;;;;;7336064;19;109379;-68
2023/12/30 10:00:44;;;;;;;;;;;10.30;99.90;;;;;;7334875;19;110033;-69
2023/12/30 10:03:13;;;;;;;;;;;10.30;99.90;;;;;;7335102;19;109065;-69
2023/12/30 10:05:40;;;;;;;;;;;10.40;99.90;;;;;;7342110;19;110024;-68
2023/12/30 10:08:08;;;;;;;;;;;10.40;99.90;;;;;;7334849;19;108550;-68
2023/12/30 10:10:42;;;;;;;;;;;10.50;99.90;;;;;;7335305;19;109422;-69
2023/12/30 10:13:10;;;;;;;;;;;10.50;99.90;;;;;;7337908;19;109932;-76
2023/12/30 10:15:39;;;;;;;;;;;10.50;99.90;;;;;;7336430;19;109146;-72
2023/12/30 10:18:07;;;;;;;;;;;10.50;99.90;;;;;;7340197;19;109369;-75
2023/12/30 10:20:39;;;;;;;;;;;10.60;99.90;;;;;;7334638;19;109150;-76
2023/12/30 10:23:07;;;;;;;;;;;10.60;99.90;;;;;;7335541;19;109101;-69
2023/12/30 10:25:37;;;;;;;;;;;10.60;99.90;;;;;;7336270;19;110831;-76
2023/12/30 10:28:05;;;;;;;;;;;10.70;99.90;;;;;;7341556;19;109253;-70
2023/12/30 10:30:32;;;;;;;;;;;10.80;99.90;;;;;;7337376;19;109333;-68
2023/12/30 10:33:09;;;;;;;;;;;10.80;99.90;;;;;;7336353;19;110135;-68
2023/12/30 10:35:43;;;;;;;;;;;10.80;99.90;;;;;;7333934;19;108382;-68
2023/12/30 10:38:12;;;;;;;;;;;10.80;99.90;;;;;;7334572;19;109282;-69
2023/12/30 10:40:39;;;;;;;;;;;10.90;99.90;;;;;;7333735;19;109213;-68
2023/12/30 10:43:07;;;;;;;;;;;10.90;99.90;;;;;;7335967;19;110263;-68
2023/12/30 10:45:35;;;;;;;;;;;10.90;99.90;;;;;;7338687;19;108517;-68
2023/12/30 10:48:05;;;;;;;;;;;10.90;99.90;;;;;;7337244;19;110214;-69
2023/12/30 10:50:32;;;;;;;;;;;10.90;99.90;;;;;;7344159;19;108171;-67
2023/12/30 10:53:04;;;;;;;;;;;10.90;99.90;;;;;;7334446;19;109822;-68
2023/12/30 10:55:32;;;;;;;;;;;10.90;99.90;;;;;;7337414;19;109770;-68
2023/12/30 10:58:03;;;;;;;;;;;10.80;99.90;;;;;;7337853;19;109271;-68
2023/12/30 11:00:35;;;;;;;;;;;10.80;99.90;;;;;;7338010;19;110860;-68
2023/12/30 11:03:03;;;;;;;;;;;10.80;99.90;;;;;;7331755;19;112824;-68
2023/12/30 11:05:35;;;;;;;;;;;10.70;99.90;;;;;;7338984;19;108974;-68
2023/12/30 11:08:03;;;;;;;;;;;10.70;99.90;;;;;;7334155;19;109819;-68
2023/12/30 11:10:32;;;;;;;;;;;10.80;99.90;;;;;;7340111;19;108864;-68
2023/12/30 11:12:59;;;;;;;;;;;10.80;99.90;;;;;;7334400;19;109986;-70
2023/12/30 11:15:28;;;;;;;;;;;10.90;99.90;;;;;;7332498;19;108846;-69
2023/12/30 11:17:59;;;;;;;;;;;11.00;99.90;;;;;;7334685;19;108581;-68
2023/12/30 11:20:27;;;;;;;;;;;11.10;99.90;;;;;;7332078;19;111137;-68
2023/12/30 11:22:56;;;;;;;;;;;11.10;99.90;;;;;;7333429;19;108545;-68
2023/12/30 11:25:31;;;;;;;;;;;11.20;99.90;;;;;;7332349;19;109059;-68
2023/12/30 11:28:16;;;;;;;;;;;11.20;99.90;;;;;;7335342;19;110337;-68
2023/12/30 11:30:45;;;;;;;;;;;11.30;99.90;;;;;;7335908;19;108835;-68
2023/12/30 11:33:16;;;;;;;;;;;11.30;99.90;;;;;;7341921;19;110872;-68
2023/12/30 11:35:43;;;;;;;;;;;11.40;99.90;;;;;;7334096;19;109109;-68
2023/12/30 11:38:11;;;;;;;;;;;11.40;99.90;;;;;;7334550;19;110429;-68
2023/12/30 11:40:41;;;;;;;;;;;11.50;99.90;;;;;;7333466;19;110906;-68
2023/12/30 11:43:10;;;;;;;;;;;11.50;99.90;;;;;;7331123;19;109226;-68
2023/12/30 11:45:37;;;;;;;;;;;11.60;99.90;;;;;;7334887;19;108697;-69
2023/12/30 11:48:05;;;;;;;;;;;11.60;99.90;;;;;;7334764;19;109301;-68
2023/12/30 11:50:32;;;;;;;;;;;11.70;99.90;;;;;;7335859;19;108413;-68
2023/12/30 11:53:01;;;;;;;;;;;11.70;99.90;;;;;;7333487;19;109762;-68
2023/12/30 11:55:29;;;;;;;;;;;11.70;99.90;;;;;;7341771;19;111685;-68
2023/12/30 11:57:57;;;;;;;;;;;11.80;99.90;;;;;;7333871;19;108598;-68
2023/12/30 12:00:26;;;;;;;;;;;11.80;99.90;;;;;;7333959;19;109784;-68
2023/12/30 12:02:54;;;;;;;;;;;11.90;99.90;;;;;;7334367;19;108319;-68
2023/12/30 12:05:22;;;;;;;;;;;11.90;99.90;;;;;;7334927;19;109256;-68
2023/12/30 12:07:49;;;;;;;;;;;11.90;99.90;;;;;;7332888;19;109457;-68
2023/12/30 12:10:17;;;;;;;;;;;11.90;99.90;;;;;;7332831;19;108891;-68
2023/12/30 12:12:46;;;;;;;;;;;12.00;99.90;;;;;;7333913;19;108386;-68
2023/12/30 12:15:14;;;;;;;;;;;12.00;99.90;;;;;;7331085;19;109726;-69
2023/12/30 12:17:41;;;;;;;;;;;12.00;99.90;;;;;;7342743;19;108563;-68
2023/12/30 12:20:10;;;;;;;;;;;12.10;99.90;;;;;;7332714;19;109531;-68
2023/12/30 12:22:38;;;;;;;;;;;12.20;99.90;;;;;;7336424;19;110167;-68
2023/12/30 12:25:06;;;;;;;;;;;12.20;99.90;;;;;;7334336;19;108679;-68
2023/12/30 12:27:33;;;;;;;;;;;12.20;99.90;;;;;;7332368;19;110454;-68
2023/12/30 12:30:01;;;;;;;;;;;12.20;99.90;;;;;;7335674;19;109235;-68
2023/12/30 12:32:28;;;;;;;;;;;12.40;99.90;;;;;;7333212;19;109219;-68
2023/12/30 12:34:58;;;;;;;;;;;12.50;99.90;;;;;;7331133;19;109262;-68
2023/12/30 12:37:25;;;;;;;;;;;12.50;99.90;;;;;;7336084;19;109516;-68
2023/12/30 12:39:53;;;;;;;;;;;12.50;99.90;;;;;;7339837;19;108686;-68
2023/12/30 12:42:20;;;;;;;;;;;12.50;99.90;;;;;;7332584;19;110959;-68
2023/12/30 12:44:56;;;;;;;;;;;12.40;99.90;;;;;;7334627;19;108936;-68
2023/12/30 12:47:23;;;;;;;;;;;12.40;99.90;;;;;;7333870;19;110735;-68
2023/12/30 12:49:51;;;;;;;;;;;12.50;99.90;;;;;;7335390;19;109162;-68
2023/12/30 12:52:18;;;;;;;;;;;12.50;99.90;;;;;;7333665;19;109891;-68
2023/12/30 12:54:45;;;;;;;;;;;12.60;99.90;;;;;;7331186;19;110129;-68
2023/12/30 12:57:13;;;;;;;;;;;12.60;99.90;;;;;;7332540;19;109158;-68
2023/12/30 12:59:40;;;;;;;;;;;12.60;99.90;;;;;;7337225;19;109475;-68
2023/12/30 13:02:10;;;;;;;;;;;12.60;99.90;;;;;;7330786;19;108818;-68
2023/12/30 13:04:39;;;;;;;;;;;12.50;99.90;;;;;;7331031;19;109504;-68
2023/12/30 13:07:06;;;;;;;;;;;12.50;99.90;;;;;;7331235;19;109572;-68
2023/12/30 13:12:20;;;;;;;;;;;12.70;99.90;;;;;;7329985;19;109312;-68
2023/12/30 13:14:47;;;;;;;;;;;12.70;99.90;;;;;;7331403;19;110582;-68
2023/12/30 13:17:14;;;;;;;;;;;12.80;99.90;;;;;;7328724;19;108869;-68
2023/12/30 13:19:41;;;;;;;;;;;12.80;99.90;;;;;;7331707;19;109575;-68
2023/12/30 13:22:09;;;;;;;;;;;12.90;99.90;;;;;;7333207;19;109221;-68
2023/12/30 13:24:38;;;;;;;;;;;12.90;99.90;;;;;;7330667;19;110216;-68
2023/12/30 13:27:11;;;;;;;;;;;12.80;99.90;;;;;;7328940;19;109403;-68
2023/12/30 13:29:38;;;;;;;;;;;12.90;99.90;;;;;;7331898;19;108788;-72
2023/12/30 13:32:05;;;;;;;;;;;12.80;99.90;;;;;;7330976;19;109181;-69
2023/12/30 13:34:34;;;;;;;;;;;12.80;99.90;;;;;;7331669;19;109877;-70
2023/12/30 13:37:05;;;;;;;;;;;12.80;99.90;;;;;;7331540;19;108694;-77
2023/12/30 13:39:37;;;;;;;;;;;12.90;99.90;;;;;;7335270;19;108809;-73
2023/12/30 13:42:07;;;;;;;;;;;13.00;99.90;;;;;;7332065;19;110631;-71
2023/12/30 13:44:42;;;;;;;;;;;13.00;99.90;;;;;;7335917;19;109364;-71
2023/12/30 13:52:30;;;;;;;;;;;13.00;99.90;;;;;;7337839;19;108716;-68
2023/12/30 13:54:57;;;;;;;;;;;13.00;99.90;;;;;;7334828;19;109960;-70
2023/12/30 13:57:30;;;;;;;;;;;13.10;99.90;;;;;;7336752;19;110714;-67
2023/12/30 13:59:58;;;;;;;;;;;13.10;99.90;;;;;;7341446;19;111231;-68
2023/12/30 14:02:26;;;;;;;;;;;13.10;99.90;;;;;;7339589;19;109142;-68
2023/12/30 14:04:56;;;;;;;;;;;13.00;99.90;;;;;;7333547;19;109830;-69
2023/12/30 14:07:29;;;;;;;;;;;13.00;99.90;;;;;;7342945;19;109073;-69
2023/12/30 14:10:01;;;;;;;;;;;12.90;99.90;;;;;;7331828;19;109212;-68
2023/12/30 14:12:29;;;;;;;;;;;12.90;99.90;;;;;;7324831;19;110664;-68
2023/12/30 14:14:58;;;;;;;;;;;12.80;99.90;;;;;;7334181;19;111844;-68
2023/12/30 14:17:31;;;;;;;;;;;12.80;99.90;;;;;;7334308;19;108615;-68
2023/12/30 14:20:01;;;;;;;;;;;12.80;99.90;;;;;;7338116;19;109683;-68
2023/12/30 14:22:28;;;;;;;;;;;12.80;99.90;;;;;;7334341;19;110257;-68
2023/12/30 14:24:56;;;;;;;;;;;12.70;99.90;;;;;;7336005;19;108609;-68